sensor_id;sensor_type;location;lat;lon;timestamp;temperature;humidity
1716;DHT22;855;48.824;9.220;2023-12-20T00:05:16;8.50;86.60
1716;DHT22;855;48.824;9.220;2023-12-20T00:07:43;8.60;86.70
1716;DHT22;855;48.824;9.220;2023-12-20T00:12:38;8.70;86.70
1716;DHT22;855;48.824;9.220;2023-12-20T00:15:08;8.70;86.70
1716;DHT22;855;48.824;9.220;2023-12-20T00:20:02;8.70;86.90
1716;DHT22;855;48.824;9.220;2023-12-20T00:22:29;8.80;86.60
1716;DHT22;855;48.824;9.220;2023-12-20T00:27:23;9.00;86.60
1716;DHT22;855;48.824;9.220;2023-12-20T00:32:18;9.00;86.70
1716;DHT22;855;48.824;9.220;2023-12-20T00:42:06;9.10;87.10
1716;DHT22;855;48.824;9.220;2023-12-20T00:44:33;9.10;87.10
1716;DHT22;855;48.824;9.220;2023-12-20T00:49:28;9.30;87.50
1716;DHT22;855;48.824;9.220;2023-12-20T00:59:17;9.10;89.00
1716;DHT22;855;48.824;9.220;2023-12-20T01:01:44;9.10;89.80
1716;DHT22;855;48.824;9.220;2023-12-20T01:06:38;9.10;90.10
1716;DHT22;855;48.824;9.220;2023-12-20T01:09:06;9.00;90.50
1716;DHT22;855;48.824;9.220;2023-12-20T01:11:33;8.80;91.10
1716;DHT22;855;48.824;9.220;2023-12-20T01:13:59;8.80;91.40
1716;DHT22;855;48.824;9.220;2023-12-20T01:23:49;8.90;91.80
1716;DHT22;855;48.824;9.220;2023-12-20T01:33:37;8.80;92.60
1716;DHT22;855;48.824;9.220;2023-12-20T01:36:04;8.80;92.60
1716;DHT22;855;48.824;9.220;2023-12-20T01:38:31;8.90;92.60
1716;DHT22;855;48.824;9.220;2023-12-20T01:40:59;8.90;92.50
1716;DHT22;855;48.824;9.220;2023-12-20T01:45:56;8.90;92.80
1716;DHT22;855;48.824;9.220;2023-12-20T01:48:24;8.80;92.80
1716;DHT22;855;48.824;9.220;2023-12-20T01:50:51;8.80;92.90
1716;DHT22;855;48.824;9.220;2023-12-20T01:53:19;8.80;93.00
1716;DHT22;855;48.824;9.220;2023-12-20T01:55:49;8.80;93.20
1716;DHT22;855;48.824;9.220;2023-12-20T01:58:19;8.80;93.30
1716;DHT22;855;48.824;9.220;2023-12-20T02:00:46;8.80;93.20
1716;DHT22;855;48.824;9.220;2023-12-20T02:10:35;8.80;93.70
1716;DHT22;855;48.824;9.220;2023-12-20T02:15:31;8.80;93.60
1716;DHT22;855;48.824;9.220;2023-12-20T02:17:57;8.90;93.60
1716;DHT22;855;48.824;9.220;2023-12-20T02:22:52;8.30;94.60
1716;DHT22;855;48.824;9.220;2023-12-20T02:27:46;8.40;94.80
1716;DHT22;855;48.824;9.220;2023-12-20T02:35:08;8.50;94.50
1716;DHT22;855;48.824;9.220;2023-12-20T02:40:04;8.50;94.70
1716;DHT22;855;48.824;9.220;2023-12-20T02:52:19;8.50;94.90
1716;DHT22;855;48.824;9.220;2023-12-20T02:54:46;8.40;94.80
1716;DHT22;855;48.824;9.220;2023-12-20T02:57:14;8.30;94.90
1716;DHT22;855;48.824;9.220;2023-12-20T02:59:41;8.20;95.30
1716;DHT22;855;48.824;9.220;2023-12-20T03:07:02;8.20;95.70
1716;DHT22;855;48.824;9.220;2023-12-20T03:11:56;8.20;95.80
1716;DHT22;855;48.824;9.220;2023-12-20T03:14:24;8.20;95.80
1716;DHT22;855;48.824;9.220;2023-12-20T03:16:51;8.10;95.90
1716;DHT22;855;48.824;9.220;2023-12-20T03:19:18;8.10;96.20
1716;DHT22;855;48.824;9.220;2023-12-20T03:24:12;8.20;96.20
1716;DHT22;855;48.824;9.220;2023-12-20T03:31:34;8.00;95.90
1716;DHT22;855;48.824;9.220;2023-12-20T03:34:01;7.80;95.90
1716;DHT22;855;48.824;9.220;2023-12-20T03:41:22;7.80;95.90
1716;DHT22;855;48.824;9.220;2023-12-20T03:48:45;7.70;95.70
1716;DHT22;855;48.824;9.220;2023-12-20T03:51:11;7.70;95.70
1716;DHT22;855;48.824;9.220;2023-12-20T03:53:38;7.70;95.50
1716;DHT22;855;48.824;9.220;2023-12-20T03:56:06;7.70;95.50
1716;DHT22;855;48.824;9.220;2023-12-20T04:03:28;7.50;95.30
1716;DHT22;855;48.824;9.220;2023-12-20T04:05:56;7.40;95.20
1716;DHT22;855;48.824;9.220;2023-12-20T04:08:23;7.40;95.30
1716;DHT22;855;48.824;9.220;2023-12-20T04:10:49;7.50;95.40
1716;DHT22;855;48.824;9.220;2023-12-20T04:13:16;7.40;95.40
1716;DHT22;855;48.824;9.220;2023-12-20T04:18:11;7.50;95.40
1716;DHT22;855;48.824;9.220;2023-12-20T04:20:37;7.50;95.30
1716;DHT22;855;48.824;9.220;2023-12-20T04:23:05;7.60;95.30
1716;DHT22;855;48.824;9.220;2023-12-20T04:25:32;7.60;95.10
1716;DHT22;855;48.824;9.220;2023-12-20T04:37:47;7.50;95.10
1716;DHT22;855;48.824;9.220;2023-12-20T04:40:17;7.50;95.00
1716;DHT22;855;48.824;9.220;2023-12-20T04:47:41;7.70;94.80
1716;DHT22;855;48.824;9.220;2023-12-20T04:50:08;7.70;94.80
1716;DHT22;855;48.824;9.220;2023-12-20T04:52:36;7.80;94.70
1716;DHT22;855;48.824;9.220;2023-12-20T04:55:04;7.80;94.50
1716;DHT22;855;48.824;9.220;2023-12-20T04:57:32;7.80;94.60
1716;DHT22;855;48.824;9.220;2023-12-20T04:59:59;7.80;94.70
1716;DHT22;855;48.824;9.220;2023-12-20T05:02:26;7.80;94.30
1716;DHT22;855;48.824;9.220;2023-12-20T05:04:53;7.80;94.20
1716;DHT22;855;48.824;9.220;2023-12-20T05:09:47;7.90;94.20
1716;DHT22;855;48.824;9.220;2023-12-20T05:14:42;7.80;94.10
1716;DHT22;855;48.824;9.220;2023-12-20T05:17:09;7.80;94.10
1716;DHT22;855;48.824;9.220;2023-12-20T05:22:03;7.80;94.30
1716;DHT22;855;48.824;9.220;2023-12-20T05:26:57;7.80;94.60
1716;DHT22;855;48.824;9.220;2023-12-20T05:29:24;7.70;94.50
1716;DHT22;855;48.824;9.220;2023-12-20T05:31:52;7.60;94.70
1716;DHT22;855;48.824;9.220;2023-12-20T05:34:19;7.70;94.70
1716;DHT22;855;48.824;9.220;2023-12-20T05:36:46;7.80;94.70
1716;DHT22;855;48.824;9.220;2023-12-20T05:49:03;7.90;94.70
1716;DHT22;855;48.824;9.220;2023-12-20T05:53:57;7.90;94.80
1716;DHT22;855;48.824;9.220;2023-12-20T05:56:24;7.90;94.90
1716;DHT22;855;48.824;9.220;2023-12-20T06:03:45;7.90;95.10
1716;DHT22;855;48.824;9.220;2023-12-20T06:06:13;8.00;95.00
1716;DHT22;855;48.824;9.220;2023-12-20T06:08:41;8.00;94.80
1716;DHT22;855;48.824;9.220;2023-12-20T06:11:09;8.00;95.00
1716;DHT22;855;48.824;9.220;2023-12-20T06:16:05;8.10;95.00
1716;DHT22;855;48.824;9.220;2023-12-20T06:23:29;8.20;95.00
1716;DHT22;855;48.824;9.220;2023-12-20T06:30:50;8.10;94.90
1716;DHT22;855;48.824;9.220;2023-12-20T06:33:18;8.10;95.50
1716;DHT22;855;48.824;9.220;2023-12-20T06:35:46;8.10;95.40
1716;DHT22;855;48.824;9.220;2023-12-20T06:40:42;8.10;95.70
1716;DHT22;855;48.824;9.220;2023-12-20T06:48:04;8.10;96.10
1716;DHT22;855;48.824;9.220;2023-12-20T06:50:31;8.10;95.90
1716;DHT22;855;48.824;9.220;2023-12-20T06:57:54;8.10;96.00
1716;DHT22;855;48.824;9.220;2023-12-20T07:00:20;8.10;96.00
1716;DHT22;855;48.824;9.220;2023-12-20T07:02:47;8.30;95.90
1716;DHT22;855;48.824;9.220;2023-12-20T07:05:16;8.20;95.80
1716;DHT22;855;48.824;9.220;2023-12-20T07:10:12;8.20;95.50
1716;DHT22;855;48.824;9.220;2023-12-20T07:12:39;8.20;95.50
1716;DHT22;855;48.824;9.220;2023-12-20T07:15:08;8.30;95.50
1716;DHT22;855;48.824;9.220;2023-12-20T07:20:02;7.90;95.30
1716;DHT22;855;48.824;9.220;2023-12-20T07:22:30;7.90;96.00
1716;DHT22;855;48.824;9.220;2023-12-20T07:27:24;7.90;96.30
1716;DHT22;855;48.824;9.220;2023-12-20T07:29:51;7.90;96.30
1716;DHT22;855;48.824;9.220;2023-12-20T07:32:19;7.80;96.50
1716;DHT22;855;48.824;9.220;2023-12-20T07:39:41;7.60;96.80
1716;DHT22;855;48.824;9.220;2023-12-20T07:42:08;7.60;96.70
1716;DHT22;855;48.824;9.220;2023-12-20T07:44:35;7.70;96.70
1716;DHT22;855;48.824;9.220;2023-12-20T07:47:02;7.70;96.30
1716;DHT22;855;48.824;9.220;2023-12-20T07:49:30;7.60;95.80
1716;DHT22;855;48.824;9.220;2023-12-20T07:51:57;7.50;95.40
1716;DHT22;855;48.824;9.220;2023-12-20T07:54:24;7.50;95.60
1716;DHT22;855;48.824;9.220;2023-12-20T08:06:41;7.50;94.30
1716;DHT22;855;48.824;9.220;2023-12-20T08:09:07;7.40;93.90
1716;DHT22;855;48.824;9.220;2023-12-20T08:11:36;7.40;93.80
1716;DHT22;855;48.824;9.220;2023-12-20T08:14:02;7.30;93.70
1716;DHT22;855;48.824;9.220;2023-12-20T08:18:56;7.30;93.60
1716;DHT22;855;48.824;9.220;2023-12-20T08:21:23;7.30;93.80
1716;DHT22;855;48.824;9.220;2023-12-20T08:23:51;7.20;93.80
1716;DHT22;855;48.824;9.220;2023-12-20T08:26:19;7.20;93.80
1716;DHT22;855;48.824;9.220;2023-12-20T08:28:47;7.10;93.80
1716;DHT22;855;48.824;9.220;2023-12-20T08:31:15;7.10;93.80
1716;DHT22;855;48.824;9.220;2023-12-20T08:33:43;7.10;93.80
1716;DHT22;855;48.824;9.220;2023-12-20T08:36:11;7.10;93.80
1716;DHT22;855;48.824;9.220;2023-12-20T08:38:38;7.00;93.60
1716;DHT22;855;48.824;9.220;2023-12-20T08:41:07;7.00;93.60
1716;DHT22;855;48.824;9.220;2023-12-20T08:43:42;7.10;93.40
1716;DHT22;855;48.824;9.220;2023-12-20T08:46:09;7.10;93.10
1716;DHT22;855;48.824;9.220;2023-12-20T08:48:36;7.10;93.30
1716;DHT22;855;48.824;9.220;2023-12-20T08:51:03;7.10;93.30
1716;DHT22;855;48.824;9.220;2023-12-20T08:53:30;7.10;92.90
1716;DHT22;855;48.824;9.220;2023-12-20T09:00:55;7.00;92.40
1716;DHT22;855;48.824;9.220;2023-12-20T09:03:22;7.00;92.20
1716;DHT22;855;48.824;9.220;2023-12-20T09:05:49;6.90;92.30
1716;DHT22;855;48.824;9.220;2023-12-20T09:10:43;7.00;92.20
1716;DHT22;855;48.824;9.220;2023-12-20T09:13:11;7.00;92.10
1716;DHT22;855;48.824;9.220;2023-12-20T09:15:38;7.00;92.00
1716;DHT22;855;48.824;9.220;2023-12-20T09:18:06;7.00;92.10
1716;DHT22;855;48.824;9.220;2023-12-20T09:20:33;7.00;91.90
1716;DHT22;855;48.824;9.220;2023-12-20T09:23:00;7.00;91.70
1716;DHT22;855;48.824;9.220;2023-12-20T09:27:55;7.10;91.40
1716;DHT22;855;48.824;9.220;2023-12-20T09:30:22;7.10;91.20
1716;DHT22;855;48.824;9.220;2023-12-20T09:35:17;7.20;89.90
1716;DHT22;855;48.824;9.220;2023-12-20T09:40:13;7.30;89.30
1716;DHT22;855;48.824;9.220;2023-12-20T09:42:50;7.30;88.20
1716;DHT22;855;48.824;9.220;2023-12-20T09:45:20;7.40;87.10
1716;DHT22;855;48.824;9.220;2023-12-20T09:47:49;7.40;87.30
1716;DHT22;855;48.824;9.220;2023-12-20T09:50:18;7.40;87.30
1716;DHT22;855;48.824;9.220;2023-12-20T09:52:46;7.50;87.00
1716;DHT22;855;48.824;9.220;2023-12-20T09:55:17;7.60;86.50
1716;DHT22;855;48.824;9.220;2023-12-20T09:57:44;7.60;86.50
1716;DHT22;855;48.824;9.220;2023-12-20T10:00:12;7.50;84.00
1716;DHT22;855;48.824;9.220;2023-12-20T10:02:45;7.50;84.60
1716;DHT22;855;48.824;9.220;2023-12-20T10:05:16;7.50;84.20
1716;DHT22;855;48.824;9.220;2023-12-20T10:07:46;7.60;83.40
1716;DHT22;855;48.824;9.220;2023-12-20T10:10:13;7.60;82.90
1716;DHT22;855;48.824;9.220;2023-12-20T10:12:40;7.60;82.40
1716;DHT22;855;48.824;9.220;2023-12-20T10:15:09;7.60;83.20
1716;DHT22;855;48.824;9.220;2023-12-20T10:17:36;7.60;81.90
1716;DHT22;855;48.824;9.220;2023-12-20T10:20:05;7.60;82.30
1716;DHT22;855;48.824;9.220;2023-12-20T10:22:35;7.60;82.10
1716;DHT22;855;48.824;9.220;2023-12-20T10:25:06;7.60;81.10
1716;DHT22;855;48.824;9.220;2023-12-20T10:32:27;7.40;82.10
1716;DHT22;855;48.824;9.220;2023-12-20T10:34:55;7.40;80.40
1716;DHT22;855;48.824;9.220;2023-12-20T10:39:50;7.20;80.70
1716;DHT22;855;48.824;9.220;2023-12-20T10:42:20;7.20;81.90
1716;DHT22;855;48.824;9.220;2023-12-20T10:44:49;7.20;82.70
1716;DHT22;855;48.824;9.220;2023-12-20T10:47:16;7.20;82.90
1716;DHT22;855;48.824;9.220;2023-12-20T10:49:44;7.20;83.20
1716;DHT22;855;48.824;9.220;2023-12-20T10:52:12;7.20;83.70
1716;DHT22;855;48.824;9.220;2023-12-20T10:54:39;7.20;83.60
1716;DHT22;855;48.824;9.220;2023-12-20T10:57:07;7.30;82.90
1716;DHT22;855;48.824;9.220;2023-12-20T10:59:37;7.30;83.00
1716;DHT22;855;48.824;9.220;2023-12-20T11:02:05;7.30;82.40
1716;DHT22;855;48.824;9.220;2023-12-20T11:04:40;7.30;81.70
1716;DHT22;855;48.824;9.220;2023-12-20T11:07:20;7.30;81.20
1716;DHT22;855;48.824;9.220;2023-12-20T11:09:56;7.40;80.50
1716;DHT22;855;48.824;9.220;2023-12-20T11:12:32;7.40;80.10
1716;DHT22;855;48.824;9.220;2023-12-20T11:15:03;7.40;80.90
1716;DHT22;855;48.824;9.220;2023-12-20T11:17:32;7.50;80.30
1716;DHT22;855;48.824;9.220;2023-12-20T11:20:09;7.40;80.30
1716;DHT22;855;48.824;9.220;2023-12-20T11:22:40;7.60;79.90
1716;DHT22;855;48.824;9.220;2023-12-20T11:25:17;7.60;79.90
1716;DHT22;855;48.824;9.220;2023-12-20T11:28:07;7.60;79.60
1716;DHT22;855;48.824;9.220;2023-12-20T11:30:45;7.60;79.50
1716;DHT22;855;48.824;9.220;2023-12-20T11:33:13;7.60;79.70
1716;DHT22;855;48.824;9.220;2023-12-20T11:35:40;7.60;79.50
1716;DHT22;855;48.824;9.220;2023-12-20T11:38:08;7.70;79.30
1716;DHT22;855;48.824;9.220;2023-12-20T11:40:35;7.70;79.20
1716;DHT22;855;48.824;9.220;2023-12-20T11:43:03;7.70;80.30
1716;DHT22;855;48.824;9.220;2023-12-20T11:45:30;7.70;79.30
1716;DHT22;855;48.824;9.220;2023-12-20T11:48:02;7.80;79.50
1716;DHT22;855;48.824;9.220;2023-12-20T11:50:29;7.80;78.80
1716;DHT22;855;48.824;9.220;2023-12-20T11:52:56;7.70;78.00
1716;DHT22;855;48.824;9.220;2023-12-20T11:57:51;7.70;78.40
1716;DHT22;855;48.824;9.220;2023-12-20T12:00:18;7.60;79.00
1716;DHT22;855;48.824;9.220;2023-12-20T12:02:55;7.60;78.30
1716;DHT22;855;48.824;9.220;2023-12-20T12:05:23;7.60;77.80
1716;DHT22;855;48.824;9.220;2023-12-20T12:17:39;7.80;77.80
1716;DHT22;855;48.824;9.220;2023-12-20T12:20:06;7.90;78.20
1716;DHT22;855;48.824;9.220;2023-12-20T12:22:36;8.10;78.80
1716;DHT22;855;48.824;9.220;2023-12-20T12:25:10;8.10;77.20
1716;DHT22;855;48.824;9.220;2023-12-20T12:27:40;8.20;76.20
1716;DHT22;855;48.824;9.220;2023-12-20T12:30:08;8.20;76.20
1716;DHT22;855;48.824;9.220;2023-12-20T12:32:35;8.20;77.10
1716;DHT22;855;48.824;9.220;2023-12-20T12:35:03;8.20;76.80
1716;DHT22;855;48.824;9.220;2023-12-20T12:37:33;8.20;77.20
1716;DHT22;855;48.824;9.220;2023-12-20T12:40:04;8.30;77.10
1716;DHT22;855;48.824;9.220;2023-12-20T12:44:58;8.30;75.40
1716;DHT22;855;48.824;9.220;2023-12-20T12:47:25;8.30;75.50
1716;DHT22;855;48.824;9.220;2023-12-20T12:49:52;8.40;75.50
1716;DHT22;855;48.824;9.220;2023-12-20T12:52:19;8.30;74.90
1716;DHT22;855;48.824;9.220;2023-12-20T12:57:15;8.40;75.00
1716;DHT22;855;48.824;9.220;2023-12-20T12:59:43;8.50;74.60
1716;DHT22;855;48.824;9.220;2023-12-20T13:07:06;8.20;75.90
1716;DHT22;855;48.824;9.220;2023-12-20T13:09:33;8.30;76.30
1716;DHT22;855;48.824;9.220;2023-12-20T13:16:58;8.10;76.20
1716;DHT22;855;48.824;9.220;2023-12-20T13:19:25;8.10;76.00
1716;DHT22;855;48.824;9.220;2023-12-20T13:21:52;8.10;75.80
1716;DHT22;855;48.824;9.220;2023-12-20T13:26:46;8.20;75.60
1716;DHT22;855;48.824;9.220;2023-12-20T13:31:41;8.20;75.60
1716;DHT22;855;48.824;9.220;2023-12-20T13:34:08;8.20;75.90
1716;DHT22;855;48.824;9.220;2023-12-20T13:36:35;8.20;75.60
1716;DHT22;855;48.824;9.220;2023-12-20T13:39:03;8.30;75.80
1716;DHT22;855;48.824;9.220;2023-12-20T13:41:30;8.20;76.30
1716;DHT22;855;48.824;9.220;2023-12-20T13:43:57;8.20;75.60
1716;DHT22;855;48.824;9.220;2023-12-20T13:46:24;8.20;75.50
1716;DHT22;855;48.824;9.220;2023-12-20T13:48:52;8.30;75.60
1716;DHT22;855;48.824;9.220;2023-12-20T13:53:47;8.20;77.50
1716;DHT22;855;48.824;9.220;2023-12-20T13:58:41;8.10;76.60
1716;DHT22;855;48.824;9.220;2023-12-20T14:01:09;8.00;77.50
1716;DHT22;855;48.824;9.220;2023-12-20T14:03:37;7.90;78.00
1716;DHT22;855;48.824;9.220;2023-12-20T14:06:05;7.90;78.20
1716;DHT22;855;48.824;9.220;2023-12-20T14:08:32;8.00;78.40
1716;DHT22;855;48.824;9.220;2023-12-20T14:13:27;7.90;78.80
1716;DHT22;855;48.824;9.220;2023-12-20T14:15:54;8.00;78.60
1716;DHT22;855;48.824;9.220;2023-12-20T14:18:21;8.00;78.70
1716;DHT22;855;48.824;9.220;2023-12-20T14:23:17;8.10;79.20
1716;DHT22;855;48.824;9.220;2023-12-20T14:30:39;7.90;80.40
1716;DHT22;855;48.824;9.220;2023-12-20T14:38:01;7.80;81.50
1716;DHT22;855;48.824;9.220;2023-12-20T14:40:30;7.80;82.00
1716;DHT22;855;48.824;9.220;2023-12-20T14:42:57;7.70;83.00
1716;DHT22;855;48.824;9.220;2023-12-20T14:45:23;7.60;82.30
1716;DHT22;855;48.824;9.220;2023-12-20T14:47:51;7.60;82.10
1716;DHT22;855;48.824;9.220;2023-12-20T14:50:17;7.60;82.40
1716;DHT22;855;48.824;9.220;2023-12-20T14:55:11;7.60;82.80
1716;DHT22;855;48.824;9.220;2023-12-20T14:57:39;7.70;83.70
1716;DHT22;855;48.824;9.220;2023-12-20T15:00:07;7.70;83.60
1716;DHT22;855;48.824;9.220;2023-12-20T15:02:34;7.80;83.80
1716;DHT22;855;48.824;9.220;2023-12-20T15:05:01;7.80;84.20
1716;DHT22;855;48.824;9.220;2023-12-20T15:07:28;7.80;84.20
1716;DHT22;855;48.824;9.220;2023-12-20T15:09:55;7.80;85.30
1716;DHT22;855;48.824;9.220;2023-12-20T15:12:22;7.90;85.20
1716;DHT22;855;48.824;9.220;2023-12-20T15:14:51;7.80;85.00
1716;DHT22;855;48.824;9.220;2023-12-20T15:17:18;7.80;84.80
1716;DHT22;855;48.824;9.220;2023-12-20T15:19:44;7.70;84.80
1716;DHT22;855;48.824;9.220;2023-12-20T15:22:11;7.60;84.80
1716;DHT22;855;48.824;9.220;2023-12-20T15:27:07;7.50;85.70
1716;DHT22;855;48.824;9.220;2023-12-20T15:29:34;7.50;86.20
1716;DHT22;855;48.824;9.220;2023-12-20T15:32:03;7.50;87.00
1716;DHT22;855;48.824;9.220;2023-12-20T15:36:57;7.60;86.40
1716;DHT22;855;48.824;9.220;2023-12-20T15:39:24;7.60;86.20
1716;DHT22;855;48.824;9.220;2023-12-20T15:44:18;7.50;85.20
1716;DHT22;855;48.824;9.220;2023-12-20T15:49:14;7.60;85.30
1716;DHT22;855;48.824;9.220;2023-12-20T15:51:43;7.60;84.80
1716;DHT22;855;48.824;9.220;2023-12-20T15:59:06;7.90;84.80
1716;DHT22;855;48.824;9.220;2023-12-20T16:01:33;7.80;84.80
1716;DHT22;855;48.824;9.220;2023-12-20T16:04:01;7.80;85.30
1716;DHT22;855;48.824;9.220;2023-12-20T16:06:29;7.80;85.30
1716;DHT22;855;48.824;9.220;2023-12-20T16:08:56;7.90;85.30
1716;DHT22;855;48.824;9.220;2023-12-20T16:11:23;8.00;85.30
1716;DHT22;855;48.824;9.220;2023-12-20T16:13:49;7.90;85.20
1716;DHT22;855;48.824;9.220;2023-12-20T16:16:16;7.90;85.60
1716;DHT22;855;48.824;9.220;2023-12-20T16:21:11;7.70;85.70
1716;DHT22;855;48.824;9.220;2023-12-20T16:23:39;7.60;86.50
1716;DHT22;855;48.824;9.220;2023-12-20T16:28:33;7.50;86.40
1716;DHT22;855;48.824;9.220;2023-12-20T16:33:27;7.40;86.70
1716;DHT22;855;48.824;9.220;2023-12-20T16:35:55;7.40;87.10
1716;DHT22;855;48.824;9.220;2023-12-20T16:40:50;7.40;87.40
1716;DHT22;855;48.824;9.220;2023-12-20T16:43:17;7.30;87.70
1716;DHT22;855;48.824;9.220;2023-12-20T16:48:11;7.20;88.10
1716;DHT22;855;48.824;9.220;2023-12-20T16:53:05;7.20;88.20
1716;DHT22;855;48.824;9.220;2023-12-20T16:55:32;7.20;88.20
1716;DHT22;855;48.824;9.220;2023-12-20T16:58:02;7.30;88.20
1716;DHT22;855;48.824;9.220;2023-12-20T17:02:56;7.10;88.30
1716;DHT22;855;48.824;9.220;2023-12-20T17:05:22;7.20;88.60
1716;DHT22;855;48.824;9.220;2023-12-20T17:10:16;7.10;88.20
1716;DHT22;855;48.824;9.220;2023-12-20T17:15:12;7.10;88.20
1716;DHT22;855;48.824;9.220;2023-12-20T17:20:07;7.10;88.50
1716;DHT22;855;48.824;9.220;2023-12-20T17:29:56;7.00;88.60
1716;DHT22;855;48.824;9.220;2023-12-20T17:32:26;7.10;88.60
1716;DHT22;855;48.824;9.220;2023-12-20T17:34:52;7.00;88.70
1716;DHT22;855;48.824;9.220;2023-12-20T17:37:19;7.00;88.70
1716;DHT22;855;48.824;9.220;2023-12-20T17:47:07;7.00;88.30
1716;DHT22;855;48.824;9.220;2023-12-20T17:49:36;6.90;88.50
1716;DHT22;855;48.824;9.220;2023-12-20T17:52:03;6.90;88.70
1716;DHT22;855;48.824;9.220;2023-12-20T17:54:31;7.00;88.60
1716;DHT22;855;48.824;9.220;2023-12-20T17:56:58;7.00;88.50
1716;DHT22;855;48.824;9.220;2023-12-20T17:59:26;7.00;88.60
1716;DHT22;855;48.824;9.220;2023-12-20T18:06:50;6.80;88.60
1716;DHT22;855;48.824;9.220;2023-12-20T18:09:16;6.90;88.70
1716;DHT22;855;48.824;9.220;2023-12-20T18:11:43;7.00;88.50
1716;DHT22;855;48.824;9.220;2023-12-20T18:14:10;7.00;88.50
1716;DHT22;855;48.824;9.220;2023-12-20T18:19:04;7.10;87.90
1716;DHT22;855;48.824;9.220;2023-12-20T18:21:31;7.10;87.90
1716;DHT22;855;48.824;9.220;2023-12-20T18:24:00;7.10;87.70
1716;DHT22;855;48.824;9.220;2023-12-20T18:29:01;7.20;87.70
1716;DHT22;855;48.824;9.220;2023-12-20T18:31:27;7.20;87.30
1716;DHT22;855;48.824;9.220;2023-12-20T18:33:54;7.20;86.70
1716;DHT22;855;48.824;9.220;2023-12-20T18:36:21;7.20;86.60
1716;DHT22;855;48.824;9.220;2023-12-20T18:41:17;7.20;86.70
1716;DHT22;855;48.824;9.220;2023-12-20T18:46:11;7.20;86.00
1716;DHT22;855;48.824;9.220;2023-12-20T18:56:02;7.30;86.00
1716;DHT22;855;48.824;9.220;2023-12-20T18:58:30;7.30;86.00
1716;DHT22;855;48.824;9.220;2023-12-20T19:00:57;7.30;86.00
1716;DHT22;855;48.824;9.220;2023-12-20T19:03:25;7.20;85.70
1716;DHT22;855;48.824;9.220;2023-12-20T19:08:19;7.20;85.70
1716;DHT22;855;48.824;9.220;2023-12-20T19:10:46;7.20;86.00
1716;DHT22;855;48.824;9.220;2023-12-20T19:15:41;7.20;85.60
1716;DHT22;855;48.824;9.220;2023-12-20T19:23:03;7.20;86.40
1716;DHT22;855;48.824;9.220;2023-12-20T19:25:32;7.20;86.10
1716;DHT22;855;48.824;9.220;2023-12-20T19:27:59;7.20;86.10
1716;DHT22;855;48.824;9.220;2023-12-20T19:30:26;7.20;85.80
1716;DHT22;855;48.824;9.220;2023-12-20T19:32:54;7.20;86.20
1716;DHT22;855;48.824;9.220;2023-12-20T19:40:15;7.10;86.20
1716;DHT22;855;48.824;9.220;2023-12-20T19:50:07;7.20;85.80
1716;DHT22;855;48.824;9.220;2023-12-20T19:52:34;7.10;85.60
1716;DHT22;855;48.824;9.220;2023-12-20T19:55:02;7.20;85.60
1716;DHT22;855;48.824;9.220;2023-12-20T19:57:29;7.10;86.00
1716;DHT22;855;48.824;9.220;2023-12-20T19:59:56;7.00;86.40
1716;DHT22;855;48.824;9.220;2023-12-20T20:02:23;7.10;86.20
1716;DHT22;855;48.824;9.220;2023-12-20T20:04:50;7.00;86.40
1716;DHT22;855;48.824;9.220;2023-12-20T20:07:18;7.00;86.40
1716;DHT22;855;48.824;9.220;2023-12-20T20:09:48;7.00;86.70
1716;DHT22;855;48.824;9.220;2023-12-20T20:12:15;6.90;87.00
1716;DHT22;855;48.824;9.220;2023-12-20T20:22:03;6.80;87.30
1716;DHT22;855;48.824;9.220;2023-12-20T20:24:32;6.80;87.80
1716;DHT22;855;48.824;9.220;2023-12-20T20:26:58;6.90;87.50
1716;DHT22;855;48.824;9.220;2023-12-20T20:29:25;6.90;87.50
1716;DHT22;855;48.824;9.220;2023-12-20T20:31:52;7.00;87.30
1716;DHT22;855;48.824;9.220;2023-12-20T20:36:47;7.00;87.30
1716;DHT22;855;48.824;9.220;2023-12-20T20:39:14;7.10;87.30
1716;DHT22;855;48.824;9.220;2023-12-20T20:41:42;7.00;87.10
1716;DHT22;855;48.824;9.220;2023-12-20T20:46:36;6.90;87.50
1716;DHT22;855;48.824;9.220;2023-12-20T20:51:31;6.90;87.70
1716;DHT22;855;48.824;9.220;2023-12-20T20:53:57;6.90;87.80
1716;DHT22;855;48.824;9.220;2023-12-20T20:56:24;6.90;88.10
1716;DHT22;855;48.824;9.220;2023-12-20T20:58:53;6.90;87.80
1716;DHT22;855;48.824;9.220;2023-12-20T21:03:46;6.90;87.90
1716;DHT22;855;48.824;9.220;2023-12-20T21:08:40;7.00;87.40
1716;DHT22;855;48.824;9.220;2023-12-20T21:11:07;7.00;87.50
1716;DHT22;855;48.824;9.220;2023-12-20T21:13:34;7.00;87.70
1716;DHT22;855;48.824;9.220;2023-12-20T21:16:05;7.10;87.70
1716;DHT22;855;48.824;9.220;2023-12-20T21:18:33;7.00;87.10
1716;DHT22;855;48.824;9.220;2023-12-20T21:20:59;7.00;87.10
1716;DHT22;855;48.824;9.220;2023-12-20T21:25:53;6.90;87.50
1716;DHT22;855;48.824;9.220;2023-12-20T21:30:47;6.90;87.40
1716;DHT22;855;48.824;9.220;2023-12-20T21:33:16;7.00;87.40
1716;DHT22;855;48.824;9.220;2023-12-20T21:45:31;7.10;86.20
1716;DHT22;855;48.824;9.220;2023-12-20T21:47:58;7.20;86.10
1716;DHT22;855;48.824;9.220;2023-12-20T21:50:26;7.10;85.60
1716;DHT22;855;48.824;9.220;2023-12-20T21:52:53;7.10;86.00
1716;DHT22;855;48.824;9.220;2023-12-20T21:55:20;7.10;86.00
1716;DHT22;855;48.824;9.220;2023-12-20T22:00:15;7.00;86.50
1716;DHT22;855;48.824;9.220;2023-12-20T22:02:42;7.10;86.00
1716;DHT22;855;48.824;9.220;2023-12-20T22:05:09;7.10;86.00
1716;DHT22;855;48.824;9.220;2023-12-20T22:07:38;7.10;86.00
1716;DHT22;855;48.824;9.220;2023-12-20T22:10:06;7.10;86.00
1716;DHT22;855;48.824;9.220;2023-12-20T22:12:33;7.00;86.60
1716;DHT22;855;48.824;9.220;2023-12-20T22:15:00;7.00;86.90
1716;DHT22;855;48.824;9.220;2023-12-20T22:19:54;7.00;86.60
1716;DHT22;855;48.824;9.220;2023-12-20T22:22:21;7.10;86.10
1716;DHT22;855;48.824;9.220;2023-12-20T22:24:49;7.00;86.60
1716;DHT22;855;48.824;9.220;2023-12-20T22:29:43;7.10;86.60
1716;DHT22;855;48.824;9.220;2023-12-20T22:32:12;7.10;86.60
1716;DHT22;855;48.824;9.220;2023-12-20T22:39:33;7.00;86.90
1716;DHT22;855;48.824;9.220;2023-12-20T22:42:01;7.00;87.00
1716;DHT22;855;48.824;9.220;2023-12-20T22:44:28;7.10;86.70
1716;DHT22;855;48.824;9.220;2023-12-20T22:46:55;7.10;86.70
1716;DHT22;855;48.824;9.220;2023-12-20T22:51:49;7.10;86.70
1716;DHT22;855;48.824;9.220;2023-12-20T22:54:16;7.20;87.00
1716;DHT22;855;48.824;9.220;2023-12-20T22:56:43;7.10;86.70
1716;DHT22;855;48.824;9.220;2023-12-20T22:59:12;7.20;87.00
1716;DHT22;855;48.824;9.220;2023-12-20T23:01:39;7.10;87.30
1716;DHT22;855;48.824;9.220;2023-12-20T23:06:33;7.20;87.30
1716;DHT22;855;48.824;9.220;2023-12-20T23:13:55;7.20;87.30
1716;DHT22;855;48.824;9.220;2023-12-20T23:16:23;7.20;87.70
1716;DHT22;855;48.824;9.220;2023-12-20T23:18:50;7.30;87.40
1716;DHT22;855;48.824;9.220;2023-12-20T23:21:17;7.30;87.10
1716;DHT22;855;48.824;9.220;2023-12-20T23:23:44;7.40;87.10
1716;DHT22;855;48.824;9.220;2023-12-20T23:26:11;7.40;87.10
1716;DHT22;855;48.824;9.220;2023-12-20T23:28:39;7.40;86.90
1716;DHT22;855;48.824;9.220;2023-12-20T23:33:33;7.40;87.00
1716;DHT22;855;48.824;9.220;2023-12-20T23:36:00;7.40;87.00
1716;DHT22;855;48.824;9.220;2023-12-20T23:40:54;7.50;87.00
1716;DHT22;855;48.824;9.220;2023-12-20T23:43:21;7.40;87.00
1716;DHT22;855;48.824;9.220;2023-12-20T23:50:43;7.30;87.30
1716;DHT22;855;48.824;9.220;2023-12-20T23:53:10;7.30;87.70
1716;DHT22;855;48.824;9.220;2023-12-20T23:55:37;7.40;87.50
1716;DHT22;855;48.824;9.220;2023-12-20T23:58:04;7.30;87.50
